sensor_id;sensor_type;location;lat;lon;timestamp;temperature;humidity
20400;DHT22;10359;53.596;22.520;2022-11-20T00:01:38;-5.50;99.90
20400;DHT22;10359;53.596;22.520;2022-11-20T00:04:10;-5.50;99.90
20400;DHT22;10359;53.596;22.520;2022-11-20T00:06:39;-5.50;1.00
20400;DHT22;10359;53.596;22.520;2022-11-20T00:09:10;-5.50;99.90
20400;DHT22;10359;53.596;22.520;2022-11-20T00:11:41;-5.50;99.90
20400;DHT22;10359;53.596;22.520;2022-11-20T00:14:10;-5.40;99.90
20400;DHT22;10359;53.596;22.520;2022-11-20T00:16:39;-5.60;99.90
20400;DHT22;10359;53.596;22.520;2022-11-20T00:19:08;-5.60;99.90
20400;DHT22;10359;53.596;22.520;2022-11-20T00:21:37;-5.50;99.90
20400;DHT22;10359;53.596;22.520;2022-11-20T00:24:10;-5.60;99.90
20400;DHT22;10359;53.596;22.520;2022-11-20T00:26:39;-5.60;99.90
20400;DHT22;10359;53.596;22.520;2022-11-20T00:29:09;-5.80;99.90
20400;DHT22;10359;53.596;22.520;2022-11-20T00:31:38;-5.80;99.90
20400;DHT22;10359;53.596;22.520;2022-11-20T00:34:07;-5.80;99.90
20400;DHT22;10359;53.596;22.520;2022-11-20T00:36:36;-5.80;99.90
20400;DHT22;10359;53.596;22.520;2022-11-20T00:39:05;-5.90;99.90
20400;DHT22;10359;53.596;22.520;2022-11-20T00:41:35;-6.00;99.90
20400;DHT22;10359;53.596;22.520;2022-11-20T00:44:04;-5.90;99.90
20400;DHT22;10359;53.596;22.520;2022-11-20T00:46:33;-5.70;99.90
20400;DHT22;10359;53.596;22.520;2022-11-20T00:49:02;-5.70;99.90
20400;DHT22;10359;53.596;22.520;2022-11-20T00:51:31;-5.80;99.90
20400;DHT22;10359;53.596;22.520;2022-11-20T00:54:01;-5.70;99.90
20400;DHT22;10359;53.596;22.520;2022-11-20T00:56:30;-5.80;99.90
20400;DHT22;10359;53.596;22.520;2022-11-20T00:59:01;-5.60;1.00
20400;DHT22;10359;53.596;22.520;2022-11-20T01:01:30;-5.50;99.90
20400;DHT22;10359;53.596;22.520;2022-11-20T01:03:59;-5.50;99.90
20400;DHT22;10359;53.596;22.520;2022-11-20T01:06:30;-5.60;99.90
20400;DHT22;10359;53.596;22.520;2022-11-20T01:09:00;-5.40;99.90
20400;DHT22;10359;53.596;22.520;2022-11-20T01:11:31;-5.60;99.90
20400;DHT22;10359;53.596;22.520;2022-11-20T01:14:04;-5.60;99.90
20400;DHT22;10359;53.596;22.520;2022-11-20T01:16:34;-5.60;99.90
20400;DHT22;10359;53.596;22.520;2022-11-20T01:19:05;-5.50;99.90
20400;DHT22;10359;53.596;22.520;2022-11-20T01:21:36;-5.70;99.90
20400;DHT22;10359;53.596;22.520;2022-11-20T01:24:07;-5.90;1.00
20400;DHT22;10359;53.596;22.520;2022-11-20T01:26:38;-5.90;1.00
20400;DHT22;10359;53.596;22.520;2022-11-20T01:29:12;-5.90;1.00
20400;DHT22;10359;53.596;22.520;2022-11-20T01:31:42;-6.10;1.00
20400;DHT22;10359;53.596;22.520;2022-11-20T01:34:13;-6.00;1.00
20400;DHT22;10359;53.596;22.520;2022-11-20T01:36:43;-5.80;1.00
20400;DHT22;10359;53.596;22.520;2022-11-20T01:39:14;-5.70;1.00
20400;DHT22;10359;53.596;22.520;2022-11-20T01:41:44;-5.80;1.00
20400;DHT22;10359;53.596;22.520;2022-11-20T01:44:59;-5.70;1.00
20400;DHT22;10359;53.596;22.520;2022-11-20T01:47:31;-5.40;1.00
20400;DHT22;10359;53.596;22.520;2022-11-20T01:50:05;-5.40;1.00
20400;DHT22;10359;53.596;22.520;2022-11-20T01:52:40;-5.40;1.00
20400;DHT22;10359;53.596;22.520;2022-11-20T01:55:14;-5.40;1.00
20400;DHT22;10359;53.596;22.520;2022-11-20T01:57:47;-5.20;1.00
20400;DHT22;10359;53.596;22.520;2022-11-20T02:00:20;-5.10;99.90
20400;DHT22;10359;53.596;22.520;2022-11-20T02:02:53;-5.30;99.90
20400;DHT22;10359;53.596;22.520;2022-11-20T02:05:27;-4.90;99.90
20400;DHT22;10359;53.596;22.520;2022-11-20T02:07:58;-4.90;99.90
20400;DHT22;10359;53.596;22.520;2022-11-20T02:13:12;-4.80;99.90
20400;DHT22;10359;53.596;22.520;2022-11-20T02:16:01;-4.80;99.90
20400;DHT22;10359;53.596;22.520;2022-11-20T02:18:33;-4.80;99.90
20400;DHT22;10359;53.596;22.520;2022-11-20T02:21:07;-5.00;99.90
20400;DHT22;10359;53.596;22.520;2022-11-20T02:23:39;-4.60;99.90
20400;DHT22;10359;53.596;22.520;2022-11-20T02:26:14;-4.70;99.90
20400;DHT22;10359;53.596;22.520;2022-11-20T02:28:44;-4.70;99.90
20400;DHT22;10359;53.596;22.520;2022-11-20T02:31:19;-4.70;99.90
20400;DHT22;10359;53.596;22.520;2022-11-20T02:33:55;-4.70;99.90
20400;DHT22;10359;53.596;22.520;2022-11-20T02:36:26;-4.70;99.90
20400;DHT22;10359;53.596;22.520;2022-11-20T02:38:55;-4.90;99.90
20400;DHT22;10359;53.596;22.520;2022-11-20T02:41:33;-4.90;99.90
20400;DHT22;10359;53.596;22.520;2022-11-20T02:44:04;-5.20;99.90
20400;DHT22;10359;53.596;22.520;2022-11-20T02:46:33;-4.90;99.90
20400;DHT22;10359;53.596;22.520;2022-11-20T02:49:03;-5.20;99.90
20400;DHT22;10359;53.596;22.520;2022-11-20T02:51:32;-4.90;99.90
20400;DHT22;10359;53.596;22.520;2022-11-20T02:54:02;-4.90;99.90
20400;DHT22;10359;53.596;22.520;2022-11-20T02:56:33;-4.90;99.90
20400;DHT22;10359;53.596;22.520;2022-11-20T02:59:02;-4.90;99.90
20400;DHT22;10359;53.596;22.520;2022-11-20T03:01:31;-5.00;99.90
20400;DHT22;10359;53.596;22.520;2022-11-20T03:04:03;-4.90;99.90
20400;DHT22;10359;53.596;22.520;2022-11-20T03:06:33;-4.80;99.90
20400;DHT22;10359;53.596;22.520;2022-11-20T03:09:03;-4.90;99.90
20400;DHT22;10359;53.596;22.520;2022-11-20T03:11:35;-4.60;99.90
20400;DHT22;10359;53.596;22.520;2022-11-20T03:14:04;-4.60;99.90
20400;DHT22;10359;53.596;22.520;2022-11-20T03:16:34;-4.50;99.90
20400;DHT22;10359;53.596;22.520;2022-11-20T03:19:03;-4.50;99.90
20400;DHT22;10359;53.596;22.520;2022-11-20T03:21:33;-4.40;1.00
20400;DHT22;10359;53.596;22.520;2022-11-20T03:24:04;-4.40;99.90
20400;DHT22;10359;53.596;22.520;2022-11-20T03:26:34;-4.40;1.00
20400;DHT22;10359;53.596;22.520;2022-11-20T03:29:04;-4.30;99.90
20400;DHT22;10359;53.596;22.520;2022-11-20T03:31:35;-4.30;99.90
20400;DHT22;10359;53.596;22.520;2022-11-20T03:34:04;-4.20;99.90
20400;DHT22;10359;53.596;22.520;2022-11-20T03:36:34;-4.20;99.90
20400;DHT22;10359;53.596;22.520;2022-11-20T03:39:03;-4.20;99.90
20400;DHT22;10359;53.596;22.520;2022-11-20T03:41:36;-4.10;99.90
20400;DHT22;10359;53.596;22.520;2022-11-20T03:44:07;-4.20;99.90
20400;DHT22;10359;53.596;22.520;2022-11-20T03:46:36;-4.10;99.90
20400;DHT22;10359;53.596;22.520;2022-11-20T03:49:06;-4.00;99.90
20400;DHT22;10359;53.596;22.520;2022-11-20T03:51:36;-4.00;99.90
20400;DHT22;10359;53.596;22.520;2022-11-20T03:54:08;-3.90;99.90
20400;DHT22;10359;53.596;22.520;2022-11-20T03:56:40;-3.90;99.90
20400;DHT22;10359;53.596;22.520;2022-11-20T03:59:10;-3.80;99.90
20400;DHT22;10359;53.596;22.520;2022-11-20T04:01:40;-3.80;99.90
20400;DHT22;10359;53.596;22.520;2022-11-20T04:04:15;-3.70;99.90
20400;DHT22;10359;53.596;22.520;2022-11-20T04:06:44;-3.70;99.90
20400;DHT22;10359;53.596;22.520;2022-11-20T04:09:13;-3.70;99.90
20400;DHT22;10359;53.596;22.520;2022-11-20T04:11:45;-3.60;99.90
20400;DHT22;10359;53.596;22.520;2022-11-20T04:14:15;-3.60;99.90
20400;DHT22;10359;53.596;22.520;2022-11-20T04:16:44;-3.60;99.90
20400;DHT22;10359;53.596;22.520;2022-11-20T04:19:15;-3.50;99.90
20400;DHT22;10359;53.596;22.520;2022-11-20T04:21:45;-3.50;99.90
20400;DHT22;10359;53.596;22.520;2022-11-20T04:24:14;-3.40;99.90
20400;DHT22;10359;53.596;22.520;2022-11-20T04:26:45;-3.40;99.90
20400;DHT22;10359;53.596;22.520;2022-11-20T04:29:14;-3.40;99.90
20400;DHT22;10359;53.596;22.520;2022-11-20T04:31:45;-3.50;99.90
20400;DHT22;10359;53.596;22.520;2022-11-20T04:34:15;-3.50;99.90
20400;DHT22;10359;53.596;22.520;2022-11-20T04:36:44;-3.40;99.90
20400;DHT22;10359;53.596;22.520;2022-11-20T04:39:13;-3.40;99.90
20400;DHT22;10359;53.596;22.520;2022-11-20T04:41:44;-3.40;99.90
20400;DHT22;10359;53.596;22.520;2022-11-20T04:44:15;-3.40;99.90
20400;DHT22;10359;53.596;22.520;2022-11-20T04:46:44;-3.50;99.90
20400;DHT22;10359;53.596;22.520;2022-11-20T04:49:14;-3.40;99.90
20400;DHT22;10359;53.596;22.520;2022-11-20T04:51:44;-3.50;99.90
20400;DHT22;10359;53.596;22.520;2022-11-20T04:54:13;-3.40;99.90
20400;DHT22;10359;53.596;22.520;2022-11-20T04:56:45;-3.40;99.90
20400;DHT22;10359;53.596;22.520;2022-11-20T04:59:14;-3.30;99.90
20400;DHT22;10359;53.596;22.520;2022-11-20T05:01:46;-3.40;99.90
20400;DHT22;10359;53.596;22.520;2022-11-20T05:04:15;-3.50;99.90
20400;DHT22;10359;53.596;22.520;2022-11-20T05:06:44;-3.50;99.90
20400;DHT22;10359;53.596;22.520;2022-11-20T05:09:14;-3.40;99.90
20400;DHT22;10359;53.596;22.520;2022-11-20T05:11:45;-3.40;99.90
20400;DHT22;10359;53.596;22.520;2022-11-20T05:14:17;-3.40;99.90
20400;DHT22;10359;53.596;22.520;2022-11-20T05:16:47;-3.40;99.90
20400;DHT22;10359;53.596;22.520;2022-11-20T05:19:16;-3.50;99.90
20400;DHT22;10359;53.596;22.520;2022-11-20T05:21:46;-3.50;99.90
20400;DHT22;10359;53.596;22.520;2022-11-20T05:24:15;-3.50;99.90
20400;DHT22;10359;53.596;22.520;2022-11-20T05:26:46;-3.50;99.90
20400;DHT22;10359;53.596;22.520;2022-11-20T05:29:15;-3.50;99.90
20400;DHT22;10359;53.596;22.520;2022-11-20T05:31:45;-3.60;99.90
20400;DHT22;10359;53.596;22.520;2022-11-20T05:34:15;-3.60;99.90
20400;DHT22;10359;53.596;22.520;2022-11-20T05:36:44;-3.60;99.90
20400;DHT22;10359;53.596;22.520;2022-11-20T05:39:13;-3.60;99.90
20400;DHT22;10359;53.596;22.520;2022-11-20T05:41:42;-3.70;99.90
20400;DHT22;10359;53.596;22.520;2022-11-20T05:44:13;-3.70;99.90
20400;DHT22;10359;53.596;22.520;2022-11-20T05:46:42;-3.70;99.90
20400;DHT22;10359;53.596;22.520;2022-11-20T05:49:11;-3.70;99.90
20400;DHT22;10359;53.596;22.520;2022-11-20T05:51:41;-3.70;99.90
20400;DHT22;10359;53.596;22.520;2022-11-20T05:54:10;-3.70;99.90
20400;DHT22;10359;53.596;22.520;2022-11-20T05:56:39;-3.70;99.90
20400;DHT22;10359;53.596;22.520;2022-11-20T05:59:08;-3.80;99.90
20400;DHT22;10359;53.596;22.520;2022-11-20T06:01:38;-3.90;99.90
20400;DHT22;10359;53.596;22.520;2022-11-20T06:04:08;-4.20;99.90
20400;DHT22;10359;53.596;22.520;2022-11-20T06:06:38;-3.90;99.90
20400;DHT22;10359;53.596;22.520;2022-11-20T06:09:08;-3.90;99.90
20400;DHT22;10359;53.596;22.520;2022-11-20T06:11:38;-3.80;99.90
20400;DHT22;10359;53.596;22.520;2022-11-20T06:14:20;-3.80;99.90
20400;DHT22;10359;53.596;22.520;2022-11-20T06:16:51;-3.70;99.90
20400;DHT22;10359;53.596;22.520;2022-11-20T06:19:21;-3.60;99.90
20400;DHT22;10359;53.596;22.520;2022-11-20T06:21:51;-3.60;99.90
20400;DHT22;10359;53.596;22.520;2022-11-20T06:24:20;-3.50;99.90
20400;DHT22;10359;53.596;22.520;2022-11-20T06:26:50;-3.40;99.90
20400;DHT22;10359;53.596;22.520;2022-11-20T06:29:20;-3.30;99.90
20400;DHT22;10359;53.596;22.520;2022-11-20T06:32:01;-3.30;99.90
20400;DHT22;10359;53.596;22.520;2022-11-20T06:34:30;-3.20;99.90
20400;DHT22;10359;53.596;22.520;2022-11-20T06:36:59;-3.20;99.90
20400;DHT22;10359;53.596;22.520;2022-11-20T06:39:28;-3.20;99.90
20400;DHT22;10359;53.596;22.520;2022-11-20T06:41:57;-3.20;99.90
20400;DHT22;10359;53.596;22.520;2022-11-20T06:44:26;-3.20;99.90
20400;DHT22;10359;53.596;22.520;2022-11-20T06:46:56;-3.20;99.90
20400;DHT22;10359;53.596;22.520;2022-11-20T06:49:27;-3.20;99.90
20400;DHT22;10359;53.596;22.520;2022-11-20T06:51:58;-3.10;99.90
20400;DHT22;10359;53.596;22.520;2022-11-20T06:54:29;-3.00;99.90
20400;DHT22;10359;53.596;22.520;2022-11-20T06:56:58;-2.80;99.90
20400;DHT22;10359;53.596;22.520;2022-11-20T06:59:27;-2.80;99.90
20400;DHT22;10359;53.596;22.520;2022-11-20T07:01:56;-2.70;99.90
20400;DHT22;10359;53.596;22.520;2022-11-20T07:04:26;-2.60;99.90
20400;DHT22;10359;53.596;22.520;2022-11-20T07:06:55;-2.60;99.90
20400;DHT22;10359;53.596;22.520;2022-11-20T07:09:24;-2.60;99.90
20400;DHT22;10359;53.596;22.520;2022-11-20T07:11:54;-2.60;99.90
20400;DHT22;10359;53.596;22.520;2022-11-20T07:14:23;-2.70;99.90
20400;DHT22;10359;53.596;22.520;2022-11-20T07:16:53;-2.60;99.90
20400;DHT22;10359;53.596;22.520;2022-11-20T07:19:22;-2.60;99.90
20400;DHT22;10359;53.596;22.520;2022-11-20T07:21:53;-2.40;99.90
20400;DHT22;10359;53.596;22.520;2022-11-20T07:24:23;-2.40;99.90
20400;DHT22;10359;53.596;22.520;2022-11-20T07:26:52;-2.30;99.90
20400;DHT22;10359;53.596;22.520;2022-11-20T07:29:21;-2.20;99.90
20400;DHT22;10359;53.596;22.520;2022-11-20T07:31:50;-2.20;99.90
20400;DHT22;10359;53.596;22.520;2022-11-20T07:34:20;-2.10;99.90
20400;DHT22;10359;53.596;22.520;2022-11-20T07:36:50;-2.20;99.90
20400;DHT22;10359;53.596;22.520;2022-11-20T07:39:21;-2.10;99.90
20400;DHT22;10359;53.596;22.520;2022-11-20T07:41:50;-2.10;99.90
20400;DHT22;10359;53.596;22.520;2022-11-20T07:44:19;-2.10;99.90
20400;DHT22;10359;53.596;22.520;2022-11-20T07:46:48;-2.10;99.90
20400;DHT22;10359;53.596;22.520;2022-11-20T07:49:18;-1.90;99.90
20400;DHT22;10359;53.596;22.520;2022-11-20T07:51:50;-1.80;99.90
20400;DHT22;10359;53.596;22.520;2022-11-20T07:54:22;-1.80;99.90
20400;DHT22;10359;53.596;22.520;2022-11-20T07:56:52;-1.80;99.90
20400;DHT22;10359;53.596;22.520;2022-11-20T07:59:24;-1.70;99.90
20400;DHT22;10359;53.596;22.520;2022-11-20T08:01:54;-1.70;99.90
20400;DHT22;10359;53.596;22.520;2022-11-20T08:04:23;-1.80;99.90
20400;DHT22;10359;53.596;22.520;2022-11-20T08:06:53;-1.80;99.90
20400;DHT22;10359;53.596;22.520;2022-11-20T08:09:25;-1.90;99.90
20400;DHT22;10359;53.596;22.520;2022-11-20T08:11:56;-2.00;99.90
20400;DHT22;10359;53.596;22.520;2022-11-20T08:14:42;-2.10;99.90
20400;DHT22;10359;53.596;22.520;2022-11-20T08:17:12;-2.20;99.90
20400;DHT22;10359;53.596;22.520;2022-11-20T08:19:42;-2.20;99.90
20400;DHT22;10359;53.596;22.520;2022-11-20T08:22:12;-2.20;99.90
20400;DHT22;10359;53.596;22.520;2022-11-20T08:24:46;-2.20;99.90
20400;DHT22;10359;53.596;22.520;2022-11-20T08:27:15;-2.20;99.90
20400;DHT22;10359;53.596;22.520;2022-11-20T08:29:44;-2.10;99.90
20400;DHT22;10359;53.596;22.520;2022-11-20T08:32:14;-2.00;99.90
20400;DHT22;10359;53.596;22.520;2022-11-20T08:34:44;-1.90;99.90
20400;DHT22;10359;53.596;22.520;2022-11-20T08:37:14;-2.00;99.90
20400;DHT22;10359;53.596;22.520;2022-11-20T08:39:48;-2.00;99.90
20400;DHT22;10359;53.596;22.520;2022-11-20T08:42:18;-2.00;99.90
20400;DHT22;10359;53.596;22.520;2022-11-20T08:44:48;-1.90;99.90
20400;DHT22;10359;53.596;22.520;2022-11-20T08:47:19;-1.80;99.90
20400;DHT22;10359;53.596;22.520;2022-11-20T08:49:51;-1.40;99.90
20400;DHT22;10359;53.596;22.520;2022-11-20T08:52:20;-1.20;99.90
20400;DHT22;10359;53.596;22.520;2022-11-20T08:54:50;-0.90;99.90
20400;DHT22;10359;53.596;22.520;2022-11-20T08:57:19;-0.60;99.90
20400;DHT22;10359;53.596;22.520;2022-11-20T08:59:48;-0.50;99.90
20400;DHT22;10359;53.596;22.520;2022-11-20T09:02:32;-0.40;99.90
20400;DHT22;10359;53.596;22.520;2022-11-20T09:05:02;-0.60;99.90
20400;DHT22;10359;53.596;22.520;2022-11-20T09:07:31;-0.40;99.90
20400;DHT22;10359;53.596;22.520;2022-11-20T09:10:02;-0.30;99.90
20400;DHT22;10359;53.596;22.520;2022-11-20T09:12:52;-0.20;99.90
20400;DHT22;10359;53.596;22.520;2022-11-20T09:15:23;0.10;99.90
20400;DHT22;10359;53.596;22.520;2022-11-20T09:17:52;-0.10;99.90
20400;DHT22;10359;53.596;22.520;2022-11-20T09:20:21;0.10;99.90
20400;DHT22;10359;53.596;22.520;2022-11-20T09:22:50;0.10;99.90
20400;DHT22;10359;53.596;22.520;2022-11-20T09:25:20;0.00;99.90
20400;DHT22;10359;53.596;22.520;2022-11-20T09:27:55;-0.10;99.90
20400;DHT22;10359;53.596;22.520;2022-11-20T09:30:24;0.00;99.90
20400;DHT22;10359;53.596;22.520;2022-11-20T09:32:53;0.10;99.90
20400;DHT22;10359;53.596;22.520;2022-11-20T09:35:22;0.30;99.90
20400;DHT22;10359;53.596;22.520;2022-11-20T09:37:51;0.20;99.90
20400;DHT22;10359;53.596;22.520;2022-11-20T09:40:24;0.20;99.90
20400;DHT22;10359;53.596;22.520;2022-11-20T09:42:59;0.30;99.90
20400;DHT22;10359;53.596;22.520;2022-11-20T09:45:50;0.50;99.90
20400;DHT22;10359;53.596;22.520;2022-11-20T09:48:56;0.40;99.90
20400;DHT22;10359;53.596;22.520;2022-11-20T09:51:37;0.50;99.90
20400;DHT22;10359;53.596;22.520;2022-11-20T09:54:15;0.60;99.90
20400;DHT22;10359;53.596;22.520;2022-11-20T09:56:52;0.80;99.90
20400;DHT22;10359;53.596;22.520;2022-11-20T09:59:38;0.60;99.90
20400;DHT22;10359;53.596;22.520;2022-11-20T10:02:16;0.80;99.90
20400;DHT22;10359;53.596;22.520;2022-11-20T10:04:51;0.90;99.90
20400;DHT22;10359;53.596;22.520;2022-11-20T10:07:24;1.00;99.90
20400;DHT22;10359;53.596;22.520;2022-11-20T10:09:59;1.00;99.90
20400;DHT22;10359;53.596;22.520;2022-11-20T10:12:39;1.00;99.90
20400;DHT22;10359;53.596;22.520;2022-11-20T10:15:25;0.70;99.90
20400;DHT22;10359;53.596;22.520;2022-11-20T10:18:14;0.70;99.90
20400;DHT22;10359;53.596;22.520;2022-11-20T10:21:05;0.80;99.90
20400;DHT22;10359;53.596;22.520;2022-11-20T10:24:20;0.80;99.90
20400;DHT22;10359;53.596;22.520;2022-11-20T10:27:01;0.90;99.90
20400;DHT22;10359;53.596;22.520;2022-11-20T10:29:35;0.90;99.90
20400;DHT22;10359;53.596;22.520;2022-11-20T10:32:10;1.00;99.90
20400;DHT22;10359;53.596;22.520;2022-11-20T10:34:50;1.30;99.90
20400;DHT22;10359;53.596;22.520;2022-11-20T10:37:29;1.30;99.90
20400;DHT22;10359;53.596;22.520;2022-11-20T10:40:18;1.20;99.90
20400;DHT22;10359;53.596;22.520;2022-11-20T10:42:51;1.10;99.90
20400;DHT22;10359;53.596;22.520;2022-11-20T10:45:36;1.10;99.90
20400;DHT22;10359;53.596;22.520;2022-11-20T10:48:26;1.30;99.90
20400;DHT22;10359;53.596;22.520;2022-11-20T10:51:02;1.30;99.90
20400;DHT22;10359;53.596;22.520;2022-11-20T10:53:44;1.10;99.90
20400;DHT22;10359;53.596;22.520;2022-11-20T10:56:19;1.30;99.90
20400;DHT22;10359;53.596;22.520;2022-11-20T10:58:56;1.30;99.90
20400;DHT22;10359;53.596;22.520;2022-11-20T11:01:30;1.40;99.90
20400;DHT22;10359;53.596;22.520;2022-11-20T11:03:59;1.20;99.90
20400;DHT22;10359;53.596;22.520;2022-11-20T11:06:34;1.00;99.90
20400;DHT22;10359;53.596;22.520;2022-11-20T11:09:10;1.00;99.90
20400;DHT22;10359;53.596;22.520;2022-11-20T11:11:40;1.00;99.90
20400;DHT22;10359;53.596;22.520;2022-11-20T11:14:11;1.30;99.90
20400;DHT22;10359;53.596;22.520;2022-11-20T11:16:52;1.20;99.90
20400;DHT22;10359;53.596;22.520;2022-11-20T11:19:21;1.30;99.90
20400;DHT22;10359;53.596;22.520;2022-11-20T11:21:53;1.30;99.90
20400;DHT22;10359;53.596;22.520;2022-11-20T11:24:24;1.50;99.90
20400;DHT22;10359;53.596;22.520;2022-11-20T11:27:12;1.70;99.90
20400;DHT22;10359;53.596;22.520;2022-11-20T11:29:45;1.70;99.90
20400;DHT22;10359;53.596;22.520;2022-11-20T11:32:18;1.50;99.90
20400;DHT22;10359;53.596;22.520;2022-11-20T11:34:59;1.60;99.90
20400;DHT22;10359;53.596;22.520;2022-11-20T11:37:32;1.60;99.90
20400;DHT22;10359;53.596;22.520;2022-11-20T11:40:03;1.80;99.90
20400;DHT22;10359;53.596;22.520;2022-11-20T11:42:56;2.10;99.90
20400;DHT22;10359;53.596;22.520;2022-11-20T11:45:26;2.40;99.90
20400;DHT22;10359;53.596;22.520;2022-11-20T11:47:58;2.40;99.90
20400;DHT22;10359;53.596;22.520;2022-11-20T11:50:29;2.40;99.90
20400;DHT22;10359;53.596;22.520;2022-11-20T11:53:08;2.60;99.90
20400;DHT22;10359;53.596;22.520;2022-11-20T11:55:43;2.50;99.90
20400;DHT22;10359;53.596;22.520;2022-11-20T11:58:20;2.70;99.90
20400;DHT22;10359;53.596;22.520;2022-11-20T12:00:56;2.30;99.90
20400;DHT22;10359;53.596;22.520;2022-11-20T12:03:34;2.50;99.90
20400;DHT22;10359;53.596;22.520;2022-11-20T12:06:07;2.40;99.90
20400;DHT22;10359;53.596;22.520;2022-11-20T12:08:44;2.60;99.90
20400;DHT22;10359;53.596;22.520;2022-11-20T12:11:30;2.50;99.90
20400;DHT22;10359;53.596;22.520;2022-11-20T12:14:04;2.60;99.90
20400;DHT22;10359;53.596;22.520;2022-11-20T12:16:39;2.60;99.90
20400;DHT22;10359;53.596;22.520;2022-11-20T12:19:12;2.70;99.90
20400;DHT22;10359;53.596;22.520;2022-11-20T12:21:51;2.20;99.90
20400;DHT22;10359;53.596;22.520;2022-11-20T12:24:52;2.30;99.90
20400;DHT22;10359;53.596;22.520;2022-11-20T12:27:42;2.30;99.90
20400;DHT22;10359;53.596;22.520;2022-11-20T12:30:15;2.40;99.90
20400;DHT22;10359;53.596;22.520;2022-11-20T12:33:05;2.40;99.90
20400;DHT22;10359;53.596;22.520;2022-11-20T12:35:53;2.40;99.90
20400;DHT22;10359;53.596;22.520;2022-11-20T12:45:10;2.00;99.90
20400;DHT22;10359;53.596;22.520;2022-11-20T12:48:21;2.10;99.90
20400;DHT22;10359;53.596;22.520;2022-11-20T12:51:15;2.10;99.90
20400;DHT22;10359;53.596;22.520;2022-11-20T12:53:58;1.90;99.90
20400;DHT22;10359;53.596;22.520;2022-11-20T12:56:36;1.90;99.90
20400;DHT22;10359;53.596;22.520;2022-11-20T12:59:23;1.90;99.90
20400;DHT22;10359;53.596;22.520;2022-11-20T13:01:58;1.80;99.90
20400;DHT22;10359;53.596;22.520;2022-11-20T13:05:02;1.80;99.90
20400;DHT22;10359;53.596;22.520;2022-11-20T13:07:36;1.80;99.90
20400;DHT22;10359;53.596;22.520;2022-11-20T13:10:13;1.70;99.90
20400;DHT22;10359;53.596;22.520;2022-11-20T13:12:46;1.60;99.90
20400;DHT22;10359;53.596;22.520;2022-11-20T13:15:28;1.40;99.90
20400;DHT22;10359;53.596;22.520;2022-11-20T13:18:00;1.40;99.90
20400;DHT22;10359;53.596;22.520;2022-11-20T13:20:31;1.50;99.90
20400;DHT22;10359;53.596;22.520;2022-11-20T13:23:03;1.30;99.90
20400;DHT22;10359;53.596;22.520;2022-11-20T13:25:34;1.30;99.90
20400;DHT22;10359;53.596;22.520;2022-11-20T13:28:05;1.10;99.90
20400;DHT22;10359;53.596;22.520;2022-11-20T13:30:58;1.10;99.90
20400;DHT22;10359;53.596;22.520;2022-11-20T13:33:30;1.10;99.90
20400;DHT22;10359;53.596;22.520;2022-11-20T13:36:01;1.10;99.90
20400;DHT22;10359;53.596;22.520;2022-11-20T13:38:43;1.10;99.90
20400;DHT22;10359;53.596;22.520;2022-11-20T13:41:23;1.00;99.90
20400;DHT22;10359;53.596;22.520;2022-11-20T13:44:13;0.90;99.90
20400;DHT22;10359;53.596;22.520;2022-11-20T13:46:45;0.80;99.90
20400;DHT22;10359;53.596;22.520;2022-11-20T13:49:20;0.80;99.90
20400;DHT22;10359;53.596;22.520;2022-11-20T13:51:54;0.80;99.90
20400;DHT22;10359;53.596;22.520;2022-11-20T13:54:48;0.70;99.90
20400;DHT22;10359;53.596;22.520;2022-11-20T13:57:44;0.70;99.90
20400;DHT22;10359;53.596;22.520;2022-11-20T14:00:16;0.70;99.90
20400;DHT22;10359;53.596;22.520;2022-11-20T14:02:57;0.60;99.90
20400;DHT22;10359;53.596;22.520;2022-11-20T14:05:29;0.60;99.90
20400;DHT22;10359;53.596;22.520;2022-11-20T14:08:03;0.50;99.90
20400;DHT22;10359;53.596;22.520;2022-11-20T14:10:35;0.50;99.90
20400;DHT22;10359;53.596;22.520;2022-11-20T14:13:18;0.50;99.90
20400;DHT22;10359;53.596;22.520;2022-11-20T14:15:48;0.50;99.90
20400;DHT22;10359;53.596;22.520;2022-11-20T14:18:26;0.50;99.90
20400;DHT22;10359;53.596;22.520;2022-11-20T14:20:56;0.30;99.90
20400;DHT22;10359;53.596;22.520;2022-11-20T14:23:29;0.30;99.90
20400;DHT22;10359;53.596;22.520;2022-11-20T14:26:00;0.10;99.90
20400;DHT22;10359;53.596;22.520;2022-11-20T14:28:30;-0.10;99.90
20400;DHT22;10359;53.596;22.520;2022-11-20T14:31:00;-0.20;99.90
20400;DHT22;10359;53.596;22.520;2022-11-20T14:33:32;-0.30;99.90
20400;DHT22;10359;53.596;22.520;2022-11-20T14:36:02;-0.50;99.90
20400;DHT22;10359;53.596;22.520;2022-11-20T14:38:32;-0.50;99.90
20400;DHT22;10359;53.596;22.520;2022-11-20T14:41:15;-0.60;99.90
20400;DHT22;10359;53.596;22.520;2022-11-20T14:43:46;-0.60;99.90
20400;DHT22;10359;53.596;22.520;2022-11-20T14:46:16;-0.60;99.90
20400;DHT22;10359;53.596;22.520;2022-11-20T14:48:48;-0.60;99.90
20400;DHT22;10359;53.596;22.520;2022-11-20T14:51:29;-0.60;99.90
20400;DHT22;10359;53.596;22.520;2022-11-20T14:54:09;-0.50;99.90
20400;DHT22;10359;53.596;22.520;2022-11-20T14:56:40;-0.50;99.90
20400;DHT22;10359;53.596;22.520;2022-11-20T14:59:09;-0.50;99.90
20400;DHT22;10359;53.596;22.520;2022-11-20T15:01:39;-0.40;99.90
20400;DHT22;10359;53.596;22.520;2022-11-20T15:04:10;-0.40;99.90
20400;DHT22;10359;53.596;22.520;2022-11-20T15:06:49;-0.50;99.90
20400;DHT22;10359;53.596;22.520;2022-11-20T15:09:19;-0.40;99.90
20400;DHT22;10359;53.596;22.520;2022-11-20T15:11:55;-0.40;99.90
20400;DHT22;10359;53.596;22.520;2022-11-20T15:14:27;-0.40;99.90
20400;DHT22;10359;53.596;22.520;2022-11-20T15:16:57;-0.40;99.90
20400;DHT22;10359;53.596;22.520;2022-11-20T15:19:28;-0.40;99.90
20400;DHT22;10359;53.596;22.520;2022-11-20T15:21:58;-0.30;99.90
20400;DHT22;10359;53.596;22.520;2022-11-20T15:24:27;-0.30;99.90
20400;DHT22;10359;53.596;22.520;2022-11-20T15:26:58;-0.30;99.90
20400;DHT22;10359;53.596;22.520;2022-11-20T15:29:28;-0.20;99.90
20400;DHT22;10359;53.596;22.520;2022-11-20T15:31:57;-0.20;99.90
20400;DHT22;10359;53.596;22.520;2022-11-20T15:34:28;-0.20;99.90
20400;DHT22;10359;53.596;22.520;2022-11-20T15:37:03;-0.10;99.90
20400;DHT22;10359;53.596;22.520;2022-11-20T15:39:32;-0.10;99.90
20400;DHT22;10359;53.596;22.520;2022-11-20T15:42:03;-0.10;99.90
20400;DHT22;10359;53.596;22.520;2022-11-20T15:44:33;0.00;99.90
20400;DHT22;10359;53.596;22.520;2022-11-20T15:47:11;0.00;99.90
20400;DHT22;10359;53.596;22.520;2022-11-20T15:49:51;0.10;99.90
20400;DHT22;10359;53.596;22.520;2022-11-20T15:52:20;0.00;99.90
20400;DHT22;10359;53.596;22.520;2022-11-20T15:54:49;0.00;99.90
20400;DHT22;10359;53.596;22.520;2022-11-20T15:57:19;0.00;99.90
20400;DHT22;10359;53.596;22.520;2022-11-20T15:59:49;0.10;99.90
20400;DHT22;10359;53.596;22.520;2022-11-20T16:02:21;0.10;99.90
20400;DHT22;10359;53.596;22.520;2022-11-20T16:04:50;0.10;99.90
20400;DHT22;10359;53.596;22.520;2022-11-20T16:07:19;0.20;99.90
20400;DHT22;10359;53.596;22.520;2022-11-20T16:09:48;0.30;99.90